Time;durP1;ratioP1;P1;durP2;ratioP2;P2;SDS_P1;SDS_P2;PMS_P1;PMS_P2;Temp;Humidity;BMP_temperature;BMP_pressure;BME280_temperature;BME280_humidity;BME280_pressure;Samples;Min_cycle;Max_cycle;Signal;HPM_P1;HPM_P2
2021/10/15 00:01:33;;;;;;;29.20;17.50;;;;;;;6.40;100.00;100944.52;1722012;82;21019;-70
2021/10/15 00:03:59;;;;;;;30.27;17.90;;;;;;;6.41;100.00;100940.38;1722003;82;21021;-69
2021/10/15 00:06:26;;;;;;;32.10;18.60;;;;;;;6.41;100.00;100937.69;1722063;83;21516;-70
2021/10/15 00:08:53;;;;;;;31.77;18.10;;;;;;;6.42;100.00;100945.25;1722022;83;21026;-70
2021/10/15 00:11:19;;;;;;;31.60;17.80;;;;;;;6.42;100.00;100938.03;1721969;82;21022;-70
2021/10/15 00:13:46;;;;;;;32.57;18.17;;;;;;;6.45;100.00;100936.45;1721995;83;21041;-70
2021/10/15 00:16:12;;;;;;;34.53;19.30;;;;;;;6.46;100.00;100930.12;1721996;82;21304;-70
2021/10/15 00:18:39;;;;;;;33.57;18.67;;;;;;;6.47;100.00;100930.96;1721965;83;20999;-71
2021/10/15 00:21:05;;;;;;;32.27;17.93;;;;;;;6.47;100.00;100929.62;1722172;83;21026;-71
2021/10/15 00:23:32;;;;;;;33.40;18.70;;;;;;;6.48;100.00;100926.44;1721928;83;20998;-70
2021/10/15 00:26:00;;;;;;;36.53;19.07;;;;;;;6.50;100.00;100920.44;1721879;82;21050;-70
2021/10/15 00:28:26;;;;;;;35.57;18.67;;;;;;;6.51;100.00;100923.51;1721917;82;21034;-69
2021/10/15 00:30:57;;;;;;;33.17;18.07;;;;;;;6.52;100.00;100922.05;1721993;82;21017;-71
2021/10/15 00:33:24;;;;;;;34.43;18.37;;;;;;;6.54;100.00;100926.80;1722071;82;21050;-69
2021/10/15 00:35:51;;;;;;;33.10;18.77;;;;;;;6.56;100.00;100921.31;1721991;83;21041;-70
2021/10/15 00:38:18;;;;;;;31.63;18.23;;;;;;;6.57;100.00;100925.22;1722021;83;21018;-69
2021/10/15 00:40:46;;;;;;;32.03;17.37;;;;;;;6.60;100.00;100926.30;1721925;83;21061;-69
2021/10/15 00:43:12;;;;;;;30.20;17.00;;;;;;;6.61;100.00;100922.64;1721953;83;21002;-69
2021/10/15 00:45:40;;;;;;;28.07;16.47;;;;;;;6.63;100.00;100926.05;1722618;81;21101;-69
2021/10/15 00:48:06;;;;;;;28.87;17.10;;;;;;;6.64;100.00;100917.02;1763302;81;21021;-69
2021/10/15 00:50:33;;;;;;;27.03;15.47;;;;;;;6.67;100.00;100918.59;1763470;81;20990;-70
2021/10/15 00:53:00;;;;;;;26.33;16.00;;;;;;;6.69;100.00;100923.36;1772674;81;21057;-70
2021/10/15 00:55:28;;;;;;;25.40;14.40;;;;;;;6.71;100.00;100930.83;1773321;81;21096;-70
2021/10/15 00:57:54;;;;;;;27.03;15.20;;;;;;;6.73;100.00;100930.67;1773172;81;21060;-69
2021/10/15 01:00:21;;;;;;;26.67;14.77;;;;;;;6.76;100.00;100932.63;1773549;81;21009;-69
2021/10/15 01:02:47;;;;;;;32.17;18.07;;;;;;;6.80;100.00;100936.80;1773337;81;21052;-69
2021/10/15 01:05:16;;;;;;;30.43;17.10;;;;;;;6.83;100.00;100935.21;1773499;81;21002;-70
2021/10/15 01:07:42;;;;;;;31.77;18.37;;;;;;;6.86;100.00;100938.13;1773143;81;21067;-70
2021/10/15 01:10:09;;;;;;;29.10;17.10;;;;;;;6.87;100.00;100941.66;1773421;81;21002;-71
2021/10/15 01:12:36;;;;;;;29.70;16.90;;;;;;;6.86;100.00;100949.37;1773640;81;20979;-70
2021/10/15 01:15:04;;;;;;;34.53;18.40;;;;;;;6.86;100.00;100950.72;1773304;81;21499;-69
2021/10/15 01:17:30;;;;;;;31.57;17.43;;;;;;;6.83;100.00;100945.97;1772755;81;21048;-70
2021/10/15 01:19:57;;;;;;;31.23;17.27;;;;;;;6.81;100.00;100943.02;1773198;81;20985;-70
2021/10/15 01:22:28;;;;;;;31.47;18.07;;;;;;;6.79;100.00;100953.05;1773341;81;21040;-70
2021/10/15 01:24:58;;;;;;;32.43;18.73;;;;;;;6.75;100.00;100944.38;1773288;81;21056;-72
2021/10/15 01:27:26;;;;;;;29.33;17.57;;;;;;;6.72;100.00;100952.68;1773200;81;21037;-71
2021/10/15 01:29:53;;;;;;;31.73;19.43;;;;;;;6.69;100.00;100958.30;1773269;81;21033;-70
2021/10/15 01:32:20;;;;;;;37.17;22.33;;;;;;;6.67;100.00;100962.09;1773339;81;21045;-69
2021/10/15 01:34:46;;;;;;;39.77;24.03;;;;;;;6.64;100.00;100967.25;1773345;81;20981;-70
2021/10/15 01:37:14;;;;;;;42.27;25.97;;;;;;;6.61;100.00;100966.98;1773212;81;20994;-70
2021/10/15 01:39:40;;;;;;;43.93;26.73;;;;;;;6.56;100.00;100962.46;1756423;81;20996;-70
2021/10/15 01:42:53;;;;;;;41.77;25.07;;;;;;;6.52;100.00;100959.66;1742080;82;21013;-71
2021/10/15 01:44:36;;;;;;;40.60;24.80;;;;;;;6.51;100.00;100971.88;1737289;82;21099;-70
2021/10/15 01:47:03;;;;;;;38.43;23.93;;;;;;;6.46;100.00;100970.42;1744556;82;21018;-71
2021/10/15 01:49:31;;;;;;;39.03;24.73;;;;;;;6.45;100.00;100969.19;1745928;82;21102;-70
2021/10/15 01:51:57;;;;;;;40.53;24.53;;;;;;;6.44;100.00;100971.00;1729579;81;21488;-69
2021/10/15 01:54:24;;;;;;;40.90;25.87;;;;;;;6.44;100.00;100977.72;1704001;84;21464;-70
2021/10/15 01:56:53;;;;;;;42.93;24.57;;;;;;;6.46;100.00;100973.10;1703878;84;21087;-70
2021/10/15 01:59:19;;;;;;;40.33;24.50;;;;;;;6.44;100.00;100968.81;1703795;84;21101;-71
2021/10/15 02:01:46;;;;;;;28.40;17.67;;;;;;;6.45;100.00;100977.25;1704062;84;21066;-71
2021/10/15 02:04:13;;;;;;;28.27;17.03;;;;;;;6.46;100.00;100973.10;1704018;84;21488;-70
2021/10/15 02:06:41;;;;;;;31.23;18.17;;;;;;;6.46;100.00;100970.88;1703773;84;21001;-70
2021/10/15 02:09:08;;;;;;;31.00;19.23;;;;;;;6.44;100.00;100969.66;1704003;84;21038;-70
2021/10/15 02:11:36;;;;;;;30.27;19.27;;;;;;;6.44;100.00;100975.03;1703548;84;21086;-71
2021/10/15 02:14:05;;;;;;;29.93;18.97;;;;;;;6.44;100.00;100977.72;1704018;84;21068;-70
2021/10/15 02:16:32;;;;;;;30.87;20.37;;;;;;;6.43;100.00;100977.37;1703652;84;21122;-70
2021/10/15 02:18:59;;;;;;;29.57;19.23;;;;;;;6.44;100.00;100973.69;1703967;84;20995;-69
2021/10/15 02:21:26;;;;;;;30.40;20.17;;;;;;;6.47;100.00;100976.64;1703468;83;21116;-71
2021/10/15 02:23:52;;;;;;;32.10;21.00;;;;;;;6.48;100.00;100977.02;1703937;84;21010;-70
2021/10/15 02:26:20;;;;;;;34.53;22.77;;;;;;;6.50;100.00;100978.21;1703811;84;21022;-70
2021/10/15 02:28:47;;;;;;;30.63;19.90;;;;;;;6.50;100.00;100980.89;1703945;84;21599;-70
2021/10/15 02:31:14;;;;;;;30.57;18.90;;;;;;;6.51;100.00;100972.72;1703911;84;21793;-70
2021/10/15 02:33:40;;;;;;;31.93;20.67;;;;;;;6.52;100.00;100973.09;1703995;84;21300;-69
2021/10/15 02:36:07;;;;;;;37.57;25.97;;;;;;;6.52;100.00;100973.59;1703957;84;21045;-70
2021/10/15 02:38:35;;;;;;;44.43;31.50;;;;;;;6.53;100.00;100974.79;1704051;84;21045;-70
2021/10/15 02:41:02;;;;;;;47.27;34.30;;;;;;;6.55;100.00;100978.70;1704239;84;21033;-70
2021/10/15 02:43:29;;;;;;;56.23;41.23;;;;;;;6.53;100.00;100982.85;1704291;84;21040;-68
2021/10/15 02:45:56;;;;;;;49.13;37.43;;;;;;;6.51;100.00;100980.78;1709020;82;20989;-69
2021/10/15 02:48:22;;;;;;;41.33;29.57;;;;;;;6.50;100.00;100977.74;1742290;82;21077;-70
2021/10/15 02:50:49;;;;;;;39.33;28.77;;;;;;;6.49;100.00;100984.08;1721528;82;21066;-70
2021/10/15 02:53:16;;;;;;;40.53;29.50;;;;;;;6.49;100.00;100977.86;1753941;81;21070;-70
2021/10/15 02:55:43;;;;;;;45.17;31.93;;;;;;;6.46;100.00;100981.16;1756363;82;21045;-72
2021/10/15 02:58:11;;;;;;;50.70;37.97;;;;;;;6.46;100.00;100970.88;1756466;82;21097;-70
2021/10/15 03:00:39;;;;;;;54.47;40.97;;;;;;;6.44;100.00;100973.69;1756355;82;20994;-69
2021/10/15 03:03:06;;;;;;;47.63;36.40;;;;;;;6.44;100.00;100972.34;1756673;82;21503;-69
2021/10/15 03:05:32;;;;;;;43.40;32.53;;;;;;;6.45;100.00;100983.97;1756528;82;21021;-69
2021/10/15 03:08:00;;;;;;;35.07;23.27;;;;;;;6.43;100.00;100988.11;1756360;82;21552;-70
2021/10/15 03:10:28;;;;;;;31.70;19.77;;;;;;;6.44;100.00;100987.13;1756406;82;21042;-69
2021/10/15 03:12:54;;;;;;;29.73;17.67;;;;;;;6.44;100.00;100992.99;1756396;82;21085;-70
2021/10/15 03:15:22;;;;;;;29.13;17.73;;;;;;;6.45;100.00;100984.81;1756379;82;21076;-71
2021/10/15 03:17:50;;;;;;;28.77;17.50;;;;;;;6.46;100.00;100983.85;1756561;82;21089;-72
2021/10/15 03:20:17;;;;;;;27.97;17.73;;;;;;;6.46;100.00;100986.53;1756715;81;21018;-69
2021/10/15 03:22:44;;;;;;;29.47;19.03;;;;;;;6.47;100.00;100976.64;1756245;82;21022;-70
2021/10/15 03:25:11;;;;;;;29.90;20.30;;;;;;;6.47;100.00;100971.27;1756546;81;21045;-70
2021/10/15 03:27:38;;;;;;;32.43;20.27;;;;;;;6.48;100.00;100978.83;1756635;82;21053;-70
2021/10/15 03:30:06;;;;;;;31.53;19.47;;;;;;;6.49;100.00;100976.02;1756680;82;21018;-70
2021/10/15 03:32:32;;;;;;;32.00;19.43;;;;;;;6.51;100.00;100982.13;1756827;82;21025;-70
2021/10/15 03:35:00;;;;;;;32.17;21.03;;;;;;;6.51;100.00;100974.56;1756756;82;21022;-69
2021/10/15 03:37:27;;;;;;;32.53;21.07;;;;;;;6.50;100.00;100972.37;1756515;82;21064;-70
2021/10/15 03:39:55;;;;;;;33.43;21.77;;;;;;;6.52;100.00;100971.75;1726060;82;21085;-71
2021/10/15 03:42:21;;;;;;;32.53;20.53;;;;;;;6.53;100.00;100969.41;1708959;84;21076;-70
2021/10/15 03:44:49;;;;;;;32.43;20.73;;;;;;;6.55;100.00;100977.36;1725993;82;21032;-70
2021/10/15 03:47:15;;;;;;;32.87;21.40;;;;;;;6.53;100.00;100973.45;1718589;83;21054;-70
2021/10/15 03:49:42;;;;;;;32.63;20.67;;;;;;;6.53;100.00;100982.85;1723134;83;21026;-69
2021/10/15 03:52:08;;;;;;;31.13;20.43;;;;;;;6.54;100.00;100980.55;1728288;82;21031;-70
2021/10/15 03:54:36;;;;;;;30.30;19.53;;;;;;;6.55;100.00;100982.27;1746407;82;21023;-70
2021/10/15 03:57:04;;;;;;;31.10;19.60;;;;;;;6.56;100.00;100982.61;1746296;82;21066;-70
2021/10/15 03:59:31;;;;;;;35.87;18.70;;;;;;;6.57;100.00;100976.74;1746151;82;21113;-70
2021/10/15 04:01:58;;;;;;;31.13;17.60;;;;;;;6.58;100.00;100977.97;1746565;82;21026;-70
2021/10/15 04:04:25;;;;;;;31.73;18.17;;;;;;;6.58;100.00;100980.66;1746300;82;21058;-70
2021/10/15 04:06:52;;;;;;;29.93;17.90;;;;;;;6.58;100.00;100983.34;1746325;82;21093;-70
2021/10/15 04:09:19;;;;;;;31.20;17.23;;;;;;;6.58;100.00;100984.69;1746716;82;21022;-70
2021/10/15 04:11:45;;;;;;;29.50;16.67;;;;;;;6.59;100.00;100991.78;1746492;82;21015;-70
2021/10/15 04:14:12;;;;;;;24.00;15.43;;;;;;;6.59;100.00;100987.75;1746482;82;20995;-70
2021/10/15 04:16:38;;;;;;;27.37;15.70;;;;;;;6.59;100.00;100991.78;1746521;82;21002;-71
2021/10/15 04:19:07;;;;;;;28.50;16.73;;;;;;;6.56;100.00;100993.86;1746443;82;21488;-70
2021/10/15 04:21:34;;;;;;;28.87;17.07;;;;;;;6.53;100.00;100992.26;1746408;82;21066;-70
2021/10/15 04:24:00;;;;;;;31.53;19.00;;;;;;;6.51;100.00;100994.71;1746639;82;21536;-69
2021/10/15 04:26:27;;;;;;;30.97;17.27;;;;;;;6.49;100.00;101000.20;1746246;82;21035;-71
2021/10/15 04:28:54;;;;;;;31.53;18.00;;;;;;;6.45;100.00;101003.63;1746604;82;21035;-70
2021/10/15 04:31:20;;;;;;;32.63;18.27;;;;;;;6.45;100.00;101003.63;1746337;82;21093;-70
2021/10/15 04:33:47;;;;;;;28.50;18.00;;;;;;;6.45;100.00;101007.65;1746214;82;21042;-70
2021/10/15 04:36:14;;;;;;;30.83;17.70;;;;;;;6.45;100.00;101017.55;1746177;82;21042;-70
2021/10/15 04:38:40;;;;;;;29.90;17.33;;;;;;;6.47;100.00;101019.63;1743820;82;21086;-70
2021/10/15 04:41:07;;;;;;;27.80;17.13;;;;;;;6.48;100.00;101022.69;1733714;83;21018;-69
2021/10/15 04:43:36;;;;;;;30.13;18.77;;;;;;;6.53;100.00;101023.66;1723359;83;21042;-70
2021/10/15 04:46:02;;;;;;;31.93;19.37;;;;;;;6.60;100.00;101031.59;1726882;83;21116;-70
2021/10/15 04:48:29;;;;;;;30.37;18.50;;;;;;;6.66;100.00;101045.91;1678447;85;21003;-70
2021/10/15 04:50:56;;;;;;;34.40;21.00;;;;;;;6.72;100.00;101047.25;1699012;84;21019;-69
2021/10/15 04:53:22;;;;;;;31.87;20.07;;;;;;;6.72;100.00;101040.03;1702003;83;21042;-69
2021/10/15 04:55:49;;;;;;;31.33;19.17;;;;;;;6.71;100.00;101041.03;1703730;84;21065;-70
2021/10/15 04:58:16;;;;;;;33.23;18.77;;;;;;;6.68;100.00;101035.05;1703451;84;21576;-69
2021/10/15 05:00:43;;;;;;;31.63;17.43;;;;;;;6.69;100.00;101031.36;1703599;84;21093;-70
2021/10/15 05:03:10;;;;;;;30.93;17.00;;;;;;;6.73;100.00;101031.47;1673781;84;21040;-70
2021/10/15 05:05:42;;;;;;;30.40;16.93;;;;;;;6.80;100.00;101036.27;1673719;86;21111;-70
2021/10/15 05:08:14;;;;;;;28.60;17.17;;;;;;;6.90;100.00;101035.02;1673829;86;21102;-70
2021/10/15 05:10:41;;;;;;;29.73;17.47;;;;;;;7.00;100.00;101036.50;1674005;86;21056;-70
2021/10/15 05:13:14;;;;;;;27.30;16.13;;;;;;;7.08;100.00;101044.78;1673701;86;21067;-70
2021/10/15 05:15:44;;;;;;;27.73;15.48;;;;;;;7.13;100.00;101045.27;1673994;86;21135;-71
2021/10/15 05:18:12;;;;;;;27.90;16.70;;;;;;;7.20;100.00;101037.06;1673902;85;21581;-69
2021/10/15 05:20:41;;;;;;;27.17;15.23;;;;;;;7.28;100.00;101045.00;1673711;86;21608;-69
2021/10/15 05:23:09;;;;;;;23.83;14.47;;;;;;;7.37;100.00;101036.20;1673967;86;21039;-70
2021/10/15 05:25:36;;;;;;;27.63;15.00;;;;;;;7.45;100.00;101044.47;1673870;86;21039;-70
2021/10/15 05:28:03;;;;;;;30.00;16.10;;;;;;;7.53;100.00;101039.33;1673855;86;21087;-71
2021/10/15 05:30:30;;;;;;;25.07;15.20;;;;;;;7.60;100.00;101049.95;1673792;86;21028;-70
2021/10/15 05:32:59;;;;;;;27.87;15.37;;;;;;;7.68;100.00;101043.06;1673716;86;21538;-70
2021/10/15 05:35:25;;;;;;;23.83;14.37;;;;;;;7.72;100.00;101042.70;1673880;86;21063;-69
2021/10/15 05:37:52;;;;;;;23.83;14.27;;;;;;;7.77;100.00;101037.78;1673956;86;21067;-70
2021/10/15 05:40:18;;;;;;;26.67;15.10;;;;;;;7.84;100.00;101041.30;1705320;84;21033;-70
2021/10/15 05:42:48;;;;;;;28.43;15.23;;;;;;;7.89;100.00;101046.66;1705484;84;21060;-71
2021/10/15 05:45:16;;;;;;;26.53;16.77;;;;;;;7.91;100.00;101040.64;1671492;85;21083;-70
2021/10/15 05:47:43;;;;;;;27.77;17.57;;;;;;;7.92;100.00;101036.13;1640556;86;21045;-70
2021/10/15 05:50:10;;;;;;;28.40;16.90;;;;;;;7.91;100.00;101037.95;1635905;88;21057;-70
2021/10/15 05:52:40;;;;;;;28.27;17.20;;;;;;;7.91;100.00;101044.67;1641866;85;21089;-70
2021/10/15 06:00:25;;;;;;;27.27;15.67;;;;;;;8.03;100.00;101045.48;1669149;86;22245;-70
2021/10/15 06:02:52;;;;;;;28.30;17.27;;;;;;;8.09;100.00;101043.64;1669265;86;21085;-69
2021/10/15 06:15:55;;;;;;;30.20;18.27;;;;;;;8.49;100.00;101040.73;1638725;87;21553;-70
2021/10/15 06:18:23;;;;;;;32.50;19.93;;;;;;;8.61;100.00;101036.97;1638867;87;21124;-70
2021/10/15 06:20:50;;;;;;;36.07;20.27;;;;;;;8.76;100.00;101046.05;1639230;87;21104;-70
2021/10/15 06:23:18;;;;;;;35.80;20.47;;;;;;;8.87;100.00;101038.73;1639250;87;21510;-70
2021/10/15 06:25:45;;;;;;;32.73;20.27;;;;;;;8.99;100.00;101034.06;1638999;87;21530;-70
2021/10/15 06:28:12;;;;;;;34.30;20.17;;;;;;;9.15;100.00;101035.41;1617266;87;21139;-70
2021/10/15 06:30:40;;;;;;;40.33;19.60;;;;;;;9.34;100.00;101031.91;1652585;86;21517;-69
2021/10/15 06:33:07;;;;;;;47.93;31.73;;;;;;;9.57;100.00;101023.06;1671640;85;21055;-69
2021/10/15 06:35:34;;;;;;;37.97;24.17;;;;;;;9.85;100.00;101027.63;1673163;86;21174;-70
2021/10/15 06:38:00;;;;;;;32.53;19.53;;;;;;;10.18;100.00;101021.91;1674931;85;21572;-70
2021/10/15 06:40:27;;;;;;;30.13;18.10;;;;;;;10.48;100.00;101021.38;1645537;86;21161;-71
2021/10/15 06:42:55;;;;;;;32.07;17.77;;;;;;;10.76;100.00;101014.17;1714269;83;21654;-71
2021/10/15 06:45:21;;;;;;;31.80;17.13;;;;;;;11.01;100.00;101008.57;1734995;83;21081;-70
2021/10/15 06:47:50;;;;;;;29.90;17.87;;;;;;;11.26;100.00;101000.73;1733696;83;21126;-74
2021/10/15 06:50:16;;;;;;;26.83;17.77;;;;;;;11.50;100.00;101001.52;1721181;83;20989;-74
2021/10/15 06:55:18;;;;;;;25.65;15.25;;;;;;;11.88;100.00;100993.59;1645775;87;21025;-78
2021/10/15 06:57:44;;;;;;;22.62;13.70;;;;;;;12.02;100.00;100984.05;1643011;87;21029;-79
2021/10/15 07:00:13;;;;;;;24.63;14.25;;;;;;;12.21;100.00;100972.68;1648495;87;21092;-76
2021/10/15 07:02:41;;;;;;;26.30;14.55;;;;;;;12.38;100.00;100981.27;1645606;87;21046;-75
2021/10/15 07:05:09;;;;;;;23.07;12.82;;;;;;;12.61;100.00;100969.88;1639485;87;21129;-75
2021/10/15 07:07:36;;;;;;;24.77;14.63;;;;;;;12.80;100.00;100968.28;1630266;87;21074;-74
2021/10/15 07:10:06;;;;;;;23.62;13.38;;;;;;;13.00;100.00;100959.88;1640098;87;21021;-75
2021/10/15 07:12:40;;;;;;;27.52;14.65;;;;;;;13.11;100.00;100952.77;1631163;87;21081;-69
2021/10/15 07:15:11;;;;;;;22.52;13.65;;;;;;;13.23;100.00;100954.16;1634823;88;21027;-70
2021/10/15 07:17:38;;;;;;;20.55;11.45;;;;;;;13.35;100.00;100957.45;1633233;88;21027;-70
2021/10/15 07:20:07;;;;;;;17.48;9.98;;;;;;;13.46;100.00;100950.33;1608209;88;21063;-71
2021/10/15 07:22:35;;;;;;;21.30;12.78;;;;;;;13.56;100.00;100947.95;1592706;88;21628;-71
2021/10/15 07:25:02;;;;;;;20.52;12.58;;;;;;;13.73;100.00;100947.47;1622688;88;21061;-72
2021/10/15 07:27:31;;;;;;;22.27;14.10;;;;;;;13.95;100.00;100940.48;1608946;88;21552;-71
2021/10/15 07:29:58;;;;;;;22.27;13.25;;;;;;;14.24;100.00;100943.50;1619227;88;21048;-70
2021/10/15 07:32:24;;;;;;;22.73;12.40;;;;;;;14.61;100.00;100937.16;1616904;88;21081;-69
2021/10/15 07:34:51;;;;;;;27.58;14.68;;;;;;;14.96;100.00;100935.81;1593345;88;21104;-71
2021/10/15 07:37:17;;;;;;;23.75;12.88;;;;;;;15.19;100.00;100934.48;1621055;88;21004;-69
2021/10/15 07:39:46;;;;;;;21.07;11.78;;;;;;;15.41;100.00;100936.05;1599036;88;21056;-71
2021/10/15 07:42:13;;;;;;;25.10;14.90;;;;;;;15.53;100.00;100931.03;1617105;87;21652;-70
2021/10/15 07:44:40;;;;;;;20.60;10.82;;;;;;;15.61;100.00;100933.67;1618005;88;21016;-71
2021/10/15 07:47:08;;;;;;;18.98;11.12;;;;;;;15.67;100.00;100935.69;1617747;87;21472;-70
2021/10/15 07:49:35;;;;;;;18.67;11.00;;;;;;;15.72;100.00;100931.03;1630782;88;21101;-69
2021/10/15 07:52:01;;;;;;;21.02;12.18;;;;;;;15.86;100.00;100937.07;1684259;82;21648;-69
2021/10/15 07:54:29;;;;;;;17.10;10.30;;;;;;;15.98;100.00;100939.38;1716158;82;21019;-69
2021/10/15 07:56:55;;;;;;;13.43;7.45;;;;;;;16.04;100.00;100935.41;1717463;82;21544;-70
2021/10/15 07:59:22;;;;;;;12.85;7.30;;;;;;;16.16;100.00;100937.67;1730524;82;21579;-71
2021/10/15 08:01:49;;;;;;;14.87;8.33;;;;;;;16.30;100.00;100934.94;1728509;82;20982;-71
2021/10/15 08:04:16;;;;;;;13.72;8.65;;;;;;;16.48;100.00;100921.45;1720903;82;20973;-71
2021/10/15 08:06:43;;;;;;;16.93;9.23;;;;;;;16.69;100.00;100931.61;1716874;82;21055;-72
2021/10/15 08:09:10;;;;;;;14.65;9.15;;;;;;;16.85;100.00;100920.50;1721589;82;21028;-70
2021/10/15 08:11:37;;;;;;;16.65;9.30;;;;;;;17.01;100.00;100920.80;1687850;83;21063;-74
2021/10/15 08:14:03;;;;;;;15.75;9.13;;;;;;;17.09;100.00;100922.59;1683127;84;21055;-73
2021/10/15 08:16:30;;;;;;;16.00;8.53;;;;;;;17.10;100.00;100923.42;1759575;80;21002;-72
2021/10/15 08:18:57;;;;;;;15.35;9.25;;;;;;;17.15;100.00;100931.37;1745867;80;21103;-73
2021/10/15 08:21:23;;;;;;;17.55;9.25;;;;;;;17.23;100.00;100932.63;1769131;80;20986;-73
2021/10/15 08:23:50;;;;;;;14.55;8.93;;;;;;;17.28;100.00;100932.03;1755085;80;20978;-73
2021/10/15 08:26:17;;;;;;;15.00;9.18;;;;;;;17.29;100.00;100932.90;1775799;80;20983;-74
2021/10/15 08:28:45;;;;;;;16.97;10.03;;;;;;;17.39;100.00;100933.44;1776333;80;21038;-73
2021/10/15 08:31:12;;;;;;;17.80;9.88;;;;;;;17.46;100.00;100928.88;1777552;80;20971;-75
2021/10/15 08:33:40;;;;;;;17.05;9.90;;;;;;;17.49;100.00;100939.41;1774834;80;21017;-73
2021/10/15 08:36:07;;;;;;;15.88;9.23;;;;;;;17.53;100.00;100932.53;1773512;80;21480;-73
2021/10/15 08:38:35;;;;;;;14.60;8.90;;;;;;;17.44;100.00;100930.44;1740807;80;21030;-73
2021/10/15 08:41:01;;;;;;;14.60;8.45;;;;;;;17.38;100.00;100936.67;1776529;80;21503;-73
2021/10/15 08:43:38;;;;;;;15.63;8.73;;;;;;;17.39;100.00;100930.17;1775223;80;20963;-73
2021/10/15 08:46:07;;;;;;;13.98;8.23;;;;;;;17.50;100.00;100927.44;1762885;80;21041;-75
2021/10/15 08:48:39;;;;;;;15.18;8.40;;;;;;;17.60;100.00;100930.70;1733098;81;20994;-72
2021/10/15 08:51:07;;;;;;;12.93;8.10;;;;;;;17.64;100.00;100933.89;1723457;83;21538;-72
2021/10/15 08:53:50;;;;;;;15.20;8.38;;;;;;;17.55;100.00;100935.07;1727047;82;21128;-72
2021/10/15 08:56:17;;;;;;;16.05;9.83;;;;;;;17.49;100.00;100926.27;1684127;84;21002;-72
2021/10/15 08:58:51;;;;;;;14.80;8.90;;;;;;;17.59;100.00;100922.16;1690094;84;21722;-71
2021/10/15 09:01:19;;;;;;;16.02;10.00;;;;;;;17.70;100.00;100926.78;1710467;82;21062;-71
2021/10/15 09:03:46;;;;;;;14.30;8.83;;;;;;;17.83;100.00;100910.50;1728030;82;21507;-70
2021/10/15 09:06:13;;;;;;;12.73;7.95;;;;;;;17.93;100.00;100912.91;1727203;82;21350;-72
2021/10/15 09:08:55;;;;;;;10.50;6.80;;;;;;;18.09;100.00;100907.14;1703057;84;21527;-72
2021/10/15 09:11:39;;;;;;;18.87;12.05;;;;;;;18.27;100.00;100907.16;1703698;83;21158;-71
2021/10/15 09:14:15;;;;;;;14.35;8.35;;;;;;;18.44;100.00;100896.20;1703788;84;21017;-71
2021/10/15 09:17:17;;;;;;;13.90;7.72;;;;;;;18.59;97.01;100898.80;1684351;85;21485;-74
2021/10/15 09:19:50;;;;;;;11.60;7.45;;;;;;;18.68;94.83;100889.39;1684739;85;21567;-72
2021/10/15 09:22:26;;;;;;;12.00;7.37;;;;;;;18.63;88.63;100892.39;1683702;85;21062;-71
2021/10/15 09:25:09;;;;;;;13.88;8.83;;;;;;;18.56;87.50;100892.38;1683081;84;21046;-72
2021/10/15 09:27:42;;;;;;;14.78;10.15;;;;;;;18.58;89.49;100889.75;1702519;83;21081;-71
2021/10/15 09:30:17;;;;;;;14.38;8.80;;;;;;;18.74;89.40;100887.19;1707668;84;21006;-71
2021/10/15 09:32:49;;;;;;;14.28;8.33;;;;;;;18.93;91.00;100882.03;1707602;84;21571;-71
2021/10/15 09:35:19;;;;;;;15.55;9.15;;;;;;;19.06;87.51;100876.58;1708312;84;21009;-71
2021/10/15 09:37:47;;;;;;;10.93;7.30;;;;;;;19.25;86.31;100883.70;1708225;84;20998;-72
2021/10/15 09:40:22;;;;;;;14.45;8.10;;;;;;;19.33;83.20;100890.34;1690701;84;21046;-72
2021/10/15 09:42:58;;;;;;;14.55;8.45;;;;;;;19.34;79.12;100883.28;1685504;85;21059;-70
2021/10/15 09:45:30;;;;;;;11.65;7.83;;;;;;;19.30;71.26;100886.64;1685513;85;21055;-71
2021/10/15 09:47:59;;;;;;;14.47;8.38;;;;;;;19.07;77.00;100877.41;1675502;85;21141;-71
2021/10/15 09:50:32;;;;;;;13.62;7.97;;;;;;;19.11;78.15;100874.06;1675407;86;21058;-71
2021/10/15 09:53:02;;;;;;;14.20;7.87;;;;;;;19.07;74.44;100867.31;1679689;85;21057;-72
2021/10/15 09:55:33;;;;;;;13.53;8.30;;;;;;;18.90;73.43;100868.20;1666233;85;21101;-72
2021/10/15 09:58:17;;;;;;;12.90;7.97;;;;;;;18.73;72.46;100869.08;1662912;86;21046;-71
2021/10/15 10:00:48;;;;;;;11.03;7.30;;;;;;;18.56;73.92;100867.20;1665421;86;21128;-71
2021/10/15 10:03:15;;;;;;;15.90;7.60;;;;;;;18.35;71.00;100862.67;1665569;86;21113;-71
2021/10/15 10:05:43;;;;;;;13.90;8.03;;;;;;;18.29;77.77;100855.78;1665328;86;21615;-71
2021/10/15 10:08:10;;;;;;;15.25;8.10;;;;;;;18.40;80.67;100847.84;1665401;86;21054;-70
2021/10/15 10:10:39;;;;;;;13.30;7.25;;;;;;;18.59;78.31;100839.41;1665488;86;21548;-71
2021/10/15 10:13:09;;;;;;;17.25;7.55;;;;;;;18.81;76.38;100845.29;1656048;86;21062;-71
2021/10/15 10:15:42;;;;;;;10.85;7.10;;;;;;;19.07;73.95;100840.41;1647644;87;21125;-71
2021/10/15 10:18:31;;;;;;;13.30;8.10;;;;;;;19.25;72.56;100842.05;1541707;92;21082;-71
2021/10/15 10:21:23;;;;;;;14.43;7.12;;;;;;;19.39;65.55;100843.41;1560753;92;21066;-71
2021/10/15 10:23:56;;;;;;;14.78;7.72;;;;;;;19.46;62.12;100836.89;1560444;90;21070;-72
2021/10/15 10:26:22;;;;;;;12.78;7.00;;;;;;;19.36;60.26;100847.43;1540570;92;21615;-72
2021/10/15 10:29:03;;;;;;;14.47;7.83;;;;;;;19.35;63.05;100845.73;1560642;92;21564;-77
2021/10/15 10:31:30;;;;;;;12.75;7.62;;;;;;;19.44;61.98;100842.26;1561406;92;21109;-77
2021/10/15 10:34:02;;;;;;;15.50;8.28;;;;;;;19.47;57.17;100838.56;1561203;92;21071;-76
2021/10/15 10:36:31;;;;;;;12.78;7.37;;;;;;;19.41;56.68;100831.73;1561694;92;21090;-76
2021/10/15 10:39:23;;;;;;;17.10;8.63;;;;;;;19.39;58.78;100830.56;1567994;90;21050;-77
2021/10/15 10:42:15;;;;;;;13.98;7.70;;;;;;;19.31;55.35;100830.76;1587870;90;21125;-75
2021/10/15 10:44:57;;;;;;;15.35;8.28;;;;;;;19.27;56.80;100831.70;1603943;87;21077;-75
2021/10/15 10:47:28;;;;;;;11.73;7.35;;;;;;;19.24;57.42;100828.00;1620001;88;20981;-76
2021/10/15 10:50:12;;;;;;;22.13;9.20;;;;;;;19.19;58.18;100825.05;1588751;90;21069;-74
2021/10/15 10:52:51;;;;;;;23.50;13.40;;;;;;;19.15;57.77;100823.78;1589220;90;21107;-76
2021/10/15 10:55:43;;;;;;;45.73;20.80;;;;;;;19.08;58.47;100824.30;1599180;89;21211;-78
2021/10/15 10:58:36;;;;;;;24.90;12.53;;;;;;;19.02;60.44;100830.09;1538825;93;21135;-76
2021/10/15 11:01:27;;;;;;;38.95;15.18;;;;;;;18.97;63.39;100824.38;1519797;93;21096;-76
2021/10/15 11:03:56;;;;;;;27.80;14.13;;;;;;;18.90;65.22;100812.56;1474480;96;21160;-76
2021/10/15 11:06:23;;;;;;;26.10;14.25;;;;;;;18.66;60.07;100813.92;1459175;98;21206;-77
2021/10/15 11:08:51;;;;;;;24.37;14.05;;;;;;;18.29;61.67;100818.83;1458516;98;21239;-76
2021/10/15 11:11:33;;;;;;;46.25;16.97;;;;;;;17.90;61.08;100812.94;1442393;100;21126;-75
2021/10/15 11:13:55;;;;;;;34.80;15.35;;;;;;;17.60;66.63;100810.88;1446085;98;21126;-75
2021/10/15 11:16:28;;;;;;;22.00;11.80;;;;;;;17.45;70.21;100803.62;1462008;98;21136;-76
2021/10/15 11:18:54;;;;;;;27.20;13.90;;;;;;;17.37;71.77;100807.02;1420390;101;21127;-75
2021/10/15 11:21:21;;;;;;;79.75;20.55;;;;;;;17.27;72.35;100799.16;1420529;101;21134;-76
2021/10/15 11:23:48;;;;;;;34.73;14.90;;;;;;;17.03;73.25;100804.00;1420548;101;21163;-76
2021/10/15 11:26:14;;;;;;;59.05;18.73;;;;;;;16.89;79.97;100806.24;1420393;101;21145;-74
2021/10/15 11:28:41;;;;;;;28.67;13.90;;;;;;;16.93;84.79;100810.30;1420241;101;21138;-75
2021/10/15 11:33:39;;;;;;;26.73;12.85;;;;;;;16.84;82.52;100800.55;1399713;103;21154;-76
2021/10/15 11:36:06;;;;;;;21.10;12.50;;;;;;;16.82;85.81;100801.20;1408137;102;21618;-71
2021/10/15 11:38:33;;;;;;;22.98;12.75;;;;;;;16.89;87.01;100802.14;1417917;99;21162;-72